sensor_id;sensor_type;location;lat;lon;timestamp;temperature;humidity
5576;DHT22;2810;50.134;8.626;2023-02-01T00:01:30;5.80;99.90
5576;DHT22;2810;50.134;8.626;2023-02-01T00:03:55;5.80;99.90
5576;DHT22;2810;50.134;8.626;2023-02-01T00:06:20;5.80;99.90
5576;DHT22;2810;50.134;8.626;2023-02-01T00:08:46;5.80;99.90
5576;DHT22;2810;50.134;8.626;2023-02-01T00:11:12;5.80;99.90
5576;DHT22;2810;50.134;8.626;2023-02-01T00:13:38;5.90;99.90
5576;DHT22;2810;50.134;8.626;2023-02-01T00:18:29;5.80;99.90
5576;DHT22;2810;50.134;8.626;2023-02-01T00:20:54;5.80;99.90
5576;DHT22;2810;50.134;8.626;2023-02-01T00:23:20;5.80;99.90
5576;DHT22;2810;50.134;8.626;2023-02-01T00:25:45;5.80;99.90
5576;DHT22;2810;50.134;8.626;2023-02-01T00:28:11;5.80;99.90
5576;DHT22;2810;50.134;8.626;2023-02-01T00:30:38;5.80;99.90
5576;DHT22;2810;50.134;8.626;2023-02-01T00:33:03;5.80;99.90
5576;DHT22;2810;50.134;8.626;2023-02-01T00:35:29;5.80;99.90
5576;DHT22;2810;50.134;8.626;2023-02-01T00:37:54;5.80;99.90
5576;DHT22;2810;50.134;8.626;2023-02-01T00:40:20;5.80;99.90
5576;DHT22;2810;50.134;8.626;2023-02-01T00:42:45;5.80;99.90
5576;DHT22;2810;50.134;8.626;2023-02-01T00:45:11;5.80;99.90
5576;DHT22;2810;50.134;8.626;2023-02-01T00:47:36;5.80;99.90
5576;DHT22;2810;50.134;8.626;2023-02-01T00:50:02;5.80;99.90
5576;DHT22;2810;50.134;8.626;2023-02-01T00:52:27;5.80;99.90
5576;DHT22;2810;50.134;8.626;2023-02-01T00:54:53;5.80;99.90
5576;DHT22;2810;50.134;8.626;2023-02-01T00:57:18;5.80;99.90
5576;DHT22;2810;50.134;8.626;2023-02-01T00:59:43;5.80;99.90
5576;DHT22;2810;50.134;8.626;2023-02-01T01:02:09;6.50;99.90
5576;DHT22;2810;50.134;8.626;2023-02-01T01:04:35;5.80;99.90
5576;DHT22;2810;50.134;8.626;2023-02-01T01:07:01;5.80;99.90
5576;DHT22;2810;50.134;8.626;2023-02-01T01:09:26;5.80;99.90
5576;DHT22;2810;50.134;8.626;2023-02-01T01:11:52;5.80;99.90
5576;DHT22;2810;50.134;8.626;2023-02-01T01:14:17;5.80;99.90
5576;DHT22;2810;50.134;8.626;2023-02-01T01:16:43;5.80;99.90
5576;DHT22;2810;50.134;8.626;2023-02-01T01:19:08;5.90;99.90
5576;DHT22;2810;50.134;8.626;2023-02-01T01:21:34;5.80;99.90
5576;DHT22;2810;50.134;8.626;2023-02-01T01:23:59;5.80;99.90
5576;DHT22;2810;50.134;8.626;2023-02-01T01:26:26;5.80;99.90
5576;DHT22;2810;50.134;8.626;2023-02-01T01:28:52;5.90;99.90
5576;DHT22;2810;50.134;8.626;2023-02-01T01:31:18;5.90;99.90
5576;DHT22;2810;50.134;8.626;2023-02-01T01:33:47;5.90;99.90
5576;DHT22;2810;50.134;8.626;2023-02-01T01:36:12;5.90;99.90
5576;DHT22;2810;50.134;8.626;2023-02-01T01:38:38;5.80;99.90
5576;DHT22;2810;50.134;8.626;2023-02-01T01:41:04;5.90;99.90
5576;DHT22;2810;50.134;8.626;2023-02-01T01:43:49;5.90;99.90
5576;DHT22;2810;50.134;8.626;2023-02-01T01:46:16;5.90;99.90
5576;DHT22;2810;50.134;8.626;2023-02-01T01:48:42;5.90;99.90
5576;DHT22;2810;50.134;8.626;2023-02-01T01:51:10;5.90;99.90
5576;DHT22;2810;50.134;8.626;2023-02-01T01:53:43;5.90;99.90
5576;DHT22;2810;50.134;8.626;2023-02-01T01:56:10;5.80;99.90
5576;DHT22;2810;50.134;8.626;2023-02-01T01:58:36;5.80;99.90
5576;DHT22;2810;50.134;8.626;2023-02-01T02:01:01;5.80;99.90
5576;DHT22;2810;50.134;8.626;2023-02-01T02:03:31;5.80;99.90
5576;DHT22;2810;50.134;8.626;2023-02-01T02:05:59;5.50;99.90
5576;DHT22;2810;50.134;8.626;2023-02-01T02:08:26;6.10;99.90
5576;DHT22;2810;50.134;8.626;2023-02-01T02:10:51;5.90;99.90
5576;DHT22;2810;50.134;8.626;2023-02-01T02:13:33;5.90;99.90
5576;DHT22;2810;50.134;8.626;2023-02-01T02:16:12;5.90;99.90
5576;DHT22;2810;50.134;8.626;2023-02-01T02:21:09;5.90;99.90
5576;DHT22;2810;50.134;8.626;2023-02-01T02:23:47;5.80;99.90
5576;DHT22;2810;50.134;8.626;2023-02-01T02:29:04;5.80;99.90
5576;DHT22;2810;50.134;8.626;2023-02-01T02:31:48;5.90;99.90
5576;DHT22;2810;50.134;8.626;2023-02-01T02:39:26;5.90;99.90
5576;DHT22;2810;50.134;8.626;2023-02-01T02:42:00;5.90;99.90
5576;DHT22;2810;50.134;8.626;2023-02-01T02:44:47;5.80;99.90
5576;DHT22;2810;50.134;8.626;2023-02-01T02:47:45;5.90;99.90
5576;DHT22;2810;50.134;8.626;2023-02-01T02:50:20;5.80;99.90
5576;DHT22;2810;50.134;8.626;2023-02-01T02:53:10;5.90;99.90
5576;DHT22;2810;50.134;8.626;2023-02-01T02:55:55;5.90;99.90
5576;DHT22;2810;50.134;8.626;2023-02-01T02:58:40;5.90;99.90
5576;DHT22;2810;50.134;8.626;2023-02-01T03:01:25;5.80;99.90
5576;DHT22;2810;50.134;8.626;2023-02-01T03:04:09;5.80;99.90
5576;DHT22;2810;50.134;8.626;2023-02-01T03:06:39;5.80;99.90
5576;DHT22;2810;50.134;8.626;2023-02-01T03:09:06;6.10;99.90
5576;DHT22;2810;50.134;8.626;2023-02-01T03:11:33;5.80;99.90
5576;DHT22;2810;50.134;8.626;2023-02-01T03:14:19;5.80;99.90
5576;DHT22;2810;50.134;8.626;2023-02-01T03:16:47;5.80;99.90
5576;DHT22;2810;50.134;8.626;2023-02-01T03:19:25;5.80;99.90
5576;DHT22;2810;50.134;8.626;2023-02-01T03:22:03;5.80;99.90
5576;DHT22;2810;50.134;8.626;2023-02-01T03:24:33;5.80;99.90
5576;DHT22;2810;50.134;8.626;2023-02-01T03:27:08;5.80;99.90
5576;DHT22;2810;50.134;8.626;2023-02-01T03:29:48;5.80;99.90
5576;DHT22;2810;50.134;8.626;2023-02-01T03:32:15;5.80;99.90
5576;DHT22;2810;50.134;8.626;2023-02-01T03:34:40;5.80;99.90
5576;DHT22;2810;50.134;8.626;2023-02-01T03:37:09;5.80;99.90
5576;DHT22;2810;50.134;8.626;2023-02-01T03:39:37;5.80;99.90
5576;DHT22;2810;50.134;8.626;2023-02-01T03:42:14;5.80;99.90
5576;DHT22;2810;50.134;8.626;2023-02-01T03:44:45;5.80;99.90
5576;DHT22;2810;50.134;8.626;2023-02-01T03:47:13;5.80;99.90
5576;DHT22;2810;50.134;8.626;2023-02-01T03:49:43;5.80;99.90
5576;DHT22;2810;50.134;8.626;2023-02-01T03:52:11;5.80;99.90
5576;DHT22;2810;50.134;8.626;2023-02-01T03:54:38;5.80;99.90
5576;DHT22;2810;50.134;8.626;2023-02-01T03:57:08;5.80;99.90
5576;DHT22;2810;50.134;8.626;2023-02-01T03:59:38;5.80;99.90
5576;DHT22;2810;50.134;8.626;2023-02-01T04:02:03;5.80;99.90
5576;DHT22;2810;50.134;8.626;2023-02-01T04:04:29;5.80;99.90
5576;DHT22;2810;50.134;8.626;2023-02-01T04:06:54;5.80;99.90
5576;DHT22;2810;50.134;8.626;2023-02-01T04:09:20;5.80;99.90
5576;DHT22;2810;50.134;8.626;2023-02-01T04:11:45;5.80;99.90
5576;DHT22;2810;50.134;8.626;2023-02-01T04:14:10;5.80;99.90
5576;DHT22;2810;50.134;8.626;2023-02-01T04:16:36;5.80;99.90
5576;DHT22;2810;50.134;8.626;2023-02-01T04:19:01;5.80;99.90
5576;DHT22;2810;50.134;8.626;2023-02-01T04:21:27;5.80;99.90
5576;DHT22;2810;50.134;8.626;2023-02-01T04:23:53;5.80;99.90
5576;DHT22;2810;50.134;8.626;2023-02-01T04:26:19;5.80;99.90
5576;DHT22;2810;50.134;8.626;2023-02-01T04:28:45;5.80;99.90
5576;DHT22;2810;50.134;8.626;2023-02-01T04:31:13;5.80;99.90
5576;DHT22;2810;50.134;8.626;2023-02-01T04:33:38;5.80;99.90
5576;DHT22;2810;50.134;8.626;2023-02-01T04:36:04;5.80;99.90
5576;DHT22;2810;50.134;8.626;2023-02-01T04:38:29;5.80;99.90
5576;DHT22;2810;50.134;8.626;2023-02-01T04:40:57;5.80;99.90
5576;DHT22;2810;50.134;8.626;2023-02-01T04:43:23;5.80;99.90
5576;DHT22;2810;50.134;8.626;2023-02-01T04:45:48;5.80;99.90
5576;DHT22;2810;50.134;8.626;2023-02-01T04:48:14;5.80;99.90
5576;DHT22;2810;50.134;8.626;2023-02-01T04:50:40;5.80;99.90
5576;DHT22;2810;50.134;8.626;2023-02-01T04:53:05;5.80;99.90
5576;DHT22;2810;50.134;8.626;2023-02-01T04:55:31;5.70;99.90
5576;DHT22;2810;50.134;8.626;2023-02-01T04:57:56;5.70;99.90
5576;DHT22;2810;50.134;8.626;2023-02-01T05:00:22;5.70;99.90
5576;DHT22;2810;50.134;8.626;2023-02-01T05:02:47;5.70;99.90
5576;DHT22;2810;50.134;8.626;2023-02-01T05:05:12;5.70;99.90
5576;DHT22;2810;50.134;8.626;2023-02-01T05:07:38;5.70;99.90
5576;DHT22;2810;50.134;8.626;2023-02-01T05:10:03;5.70;99.90
5576;DHT22;2810;50.134;8.626;2023-02-01T05:12:29;5.60;99.90
5576;DHT22;2810;50.134;8.626;2023-02-01T05:15:13;5.60;99.90
5576;DHT22;2810;50.134;8.626;2023-02-01T05:17:39;5.60;99.90
5576;DHT22;2810;50.134;8.626;2023-02-01T05:20:06;5.70;99.90
5576;DHT22;2810;50.134;8.626;2023-02-01T05:22:31;5.60;99.90
5576;DHT22;2810;50.134;8.626;2023-02-01T05:24:57;5.60;99.90
5576;DHT22;2810;50.134;8.626;2023-02-01T05:27:22;5.60;99.90
5576;DHT22;2810;50.134;8.626;2023-02-01T05:29:47;5.60;99.90
5576;DHT22;2810;50.134;8.626;2023-02-01T05:32:13;5.60;99.90
5576;DHT22;2810;50.134;8.626;2023-02-01T05:34:38;5.60;99.90
5576;DHT22;2810;50.134;8.626;2023-02-01T05:37:04;5.60;99.90
5576;DHT22;2810;50.134;8.626;2023-02-01T05:39:29;5.60;99.90
5576;DHT22;2810;50.134;8.626;2023-02-01T05:41:55;5.60;99.90
5576;DHT22;2810;50.134;8.626;2023-02-01T05:44:20;5.60;99.90
5576;DHT22;2810;50.134;8.626;2023-02-01T05:46:46;5.60;99.90
5576;DHT22;2810;50.134;8.626;2023-02-01T05:49:11;5.60;99.90
5576;DHT22;2810;50.134;8.626;2023-02-01T05:51:36;5.70;99.90
5576;DHT22;2810;50.134;8.626;2023-02-01T05:54:02;5.70;99.90
5576;DHT22;2810;50.134;8.626;2023-02-01T05:56:27;5.70;99.90
5576;DHT22;2810;50.134;8.626;2023-02-01T05:58:53;5.60;99.90
5576;DHT22;2810;50.134;8.626;2023-02-01T06:01:18;5.60;99.90
5576;DHT22;2810;50.134;8.626;2023-02-01T06:03:44;5.50;99.90
5576;DHT22;2810;50.134;8.626;2023-02-01T06:06:09;5.50;99.90
5576;DHT22;2810;50.134;8.626;2023-02-01T06:08:35;5.40;99.90
5576;DHT22;2810;50.134;8.626;2023-02-01T06:11:01;5.40;99.90
5576;DHT22;2810;50.134;8.626;2023-02-01T06:13:27;5.50;99.90
5576;DHT22;2810;50.134;8.626;2023-02-01T06:15:52;5.50;99.90
5576;DHT22;2810;50.134;8.626;2023-02-01T06:18:18;5.60;99.90
5576;DHT22;2810;50.134;8.626;2023-02-01T06:20:43;5.70;99.90
5576;DHT22;2810;50.134;8.626;2023-02-01T06:23:09;5.70;99.90
5576;DHT22;2810;50.134;8.626;2023-02-01T06:25:34;5.80;99.90
5576;DHT22;2810;50.134;8.626;2023-02-01T06:28:00;5.70;99.90
5576;DHT22;2810;50.134;8.626;2023-02-01T06:30:25;5.80;99.90
5576;DHT22;2810;50.134;8.626;2023-02-01T06:32:51;5.80;99.90
5576;DHT22;2810;50.134;8.626;2023-02-01T06:35:18;5.80;99.90
5576;DHT22;2810;50.134;8.626;2023-02-01T06:37:44;5.80;99.90
5576;DHT22;2810;50.134;8.626;2023-02-01T06:40:10;5.80;99.90
5576;DHT22;2810;50.134;8.626;2023-02-01T06:42:36;5.80;99.90
5576;DHT22;2810;50.134;8.626;2023-02-01T06:45:01;5.80;99.90
5576;DHT22;2810;50.134;8.626;2023-02-01T06:47:27;5.70;99.90
5576;DHT22;2810;50.134;8.626;2023-02-01T06:49:53;5.70;99.90
5576;DHT22;2810;50.134;8.626;2023-02-01T06:52:18;5.70;99.90
5576;DHT22;2810;50.134;8.626;2023-02-01T06:54:44;5.60;99.90
5576;DHT22;2810;50.134;8.626;2023-02-01T06:57:09;5.70;99.90
5576;DHT22;2810;50.134;8.626;2023-02-01T06:59:34;5.60;99.90
5576;DHT22;2810;50.134;8.626;2023-02-01T07:02:00;5.70;99.90
5576;DHT22;2810;50.134;8.626;2023-02-01T07:04:25;5.70;99.90
5576;DHT22;2810;50.134;8.626;2023-02-01T07:06:51;5.70;99.90
5576;DHT22;2810;50.134;8.626;2023-02-01T07:09:16;5.60;99.90
5576;DHT22;2810;50.134;8.626;2023-02-01T07:11:41;5.60;99.90
5576;DHT22;2810;50.134;8.626;2023-02-01T07:14:09;5.70;99.90
5576;DHT22;2810;50.134;8.626;2023-02-01T07:16:35;5.70;99.90
5576;DHT22;2810;50.134;8.626;2023-02-01T07:19:01;5.70;99.90
5576;DHT22;2810;50.134;8.626;2023-02-01T07:21:27;5.80;99.90
5576;DHT22;2810;50.134;8.626;2023-02-01T07:23:53;5.80;99.90
5576;DHT22;2810;50.134;8.626;2023-02-01T07:26:18;5.80;99.90
5576;DHT22;2810;50.134;8.626;2023-02-01T07:28:44;5.90;99.90
5576;DHT22;2810;50.134;8.626;2023-02-01T07:31:13;5.90;99.90
5576;DHT22;2810;50.134;8.626;2023-02-01T07:33:40;5.90;99.90
5576;DHT22;2810;50.134;8.626;2023-02-01T07:36:06;6.00;99.90
5576;DHT22;2810;50.134;8.626;2023-02-01T07:38:32;6.00;99.90
5576;DHT22;2810;50.134;8.626;2023-02-01T07:41:01;6.00;99.90
5576;DHT22;2810;50.134;8.626;2023-02-01T07:43:27;6.00;99.90
5576;DHT22;2810;50.134;8.626;2023-02-01T07:45:53;6.00;99.90
5576;DHT22;2810;50.134;8.626;2023-02-01T07:48:19;6.00;99.90
5576;DHT22;2810;50.134;8.626;2023-02-01T07:50:44;6.00;99.90
5576;DHT22;2810;50.134;8.626;2023-02-01T07:53:10;6.00;99.90
5576;DHT22;2810;50.134;8.626;2023-02-01T07:55:38;6.00;99.90
5576;DHT22;2810;50.134;8.626;2023-02-01T07:58:04;6.00;99.90
5576;DHT22;2810;50.134;8.626;2023-02-01T08:00:29;6.00;99.90
5576;DHT22;2810;50.134;8.626;2023-02-01T08:03:13;6.00;99.90
5576;DHT22;2810;50.134;8.626;2023-02-01T08:05:39;6.20;99.90
5576;DHT22;2810;50.134;8.626;2023-02-01T08:08:04;6.00;99.90
5576;DHT22;2810;50.134;8.626;2023-02-01T08:10:30;6.00;99.90
5576;DHT22;2810;50.134;8.626;2023-02-01T08:12:58;6.00;99.90
5576;DHT22;2810;50.134;8.626;2023-02-01T08:15:25;6.10;99.90
5576;DHT22;2810;50.134;8.626;2023-02-01T08:17:51;6.10;99.90
5576;DHT22;2810;50.134;8.626;2023-02-01T08:20:17;6.10;99.90
5576;DHT22;2810;50.134;8.626;2023-02-01T08:22:43;6.10;99.90
5576;DHT22;2810;50.134;8.626;2023-02-01T08:25:08;6.10;99.90
5576;DHT22;2810;50.134;8.626;2023-02-01T08:27:34;6.20;99.90
5576;DHT22;2810;50.134;8.626;2023-02-01T08:30:00;6.20;99.90
5576;DHT22;2810;50.134;8.626;2023-02-01T08:32:26;6.20;99.90
5576;DHT22;2810;50.134;8.626;2023-02-01T08:34:51;6.20;99.90
5576;DHT22;2810;50.134;8.626;2023-02-01T08:37:17;6.20;99.90
5576;DHT22;2810;50.134;8.626;2023-02-01T08:39:42;6.60;99.90
5576;DHT22;2810;50.134;8.626;2023-02-01T08:42:10;6.20;99.90
5576;DHT22;2810;50.134;8.626;2023-02-01T08:44:54;6.30;99.90
5576;DHT22;2810;50.134;8.626;2023-02-01T08:47:19;6.30;99.90
5576;DHT22;2810;50.134;8.626;2023-02-01T08:49:45;6.30;99.90
5576;DHT22;2810;50.134;8.626;2023-02-01T08:52:11;6.60;99.90
5576;DHT22;2810;50.134;8.626;2023-02-01T08:54:36;6.40;99.90
5576;DHT22;2810;50.134;8.626;2023-02-01T08:57:02;6.40;99.90
5576;DHT22;2810;50.134;8.626;2023-02-01T08:59:27;6.40;99.90
5576;DHT22;2810;50.134;8.626;2023-02-01T09:01:53;6.40;99.90
5576;DHT22;2810;50.134;8.626;2023-02-01T09:04:18;6.50;99.90
5576;DHT22;2810;50.134;8.626;2023-02-01T09:06:44;6.90;99.90
5576;DHT22;2810;50.134;8.626;2023-02-01T09:09:09;6.50;99.90
5576;DHT22;2810;50.134;8.626;2023-02-01T09:11:35;6.60;99.90
5576;DHT22;2810;50.134;8.626;2023-02-01T09:14:00;6.60;99.90
5576;DHT22;2810;50.134;8.626;2023-02-01T09:16:26;6.60;99.90
5576;DHT22;2810;50.134;8.626;2023-02-01T09:18:51;6.60;99.90
5576;DHT22;2810;50.134;8.626;2023-02-01T09:21:16;6.60;99.90
5576;DHT22;2810;50.134;8.626;2023-02-01T09:23:42;6.60;99.90
5576;DHT22;2810;50.134;8.626;2023-02-01T09:26:08;6.80;99.90
5576;DHT22;2810;50.134;8.626;2023-02-01T09:28:34;6.70;99.90
5576;DHT22;2810;50.134;8.626;2023-02-01T09:30:59;6.70;99.90
5576;DHT22;2810;50.134;8.626;2023-02-01T09:33:26;6.70;99.90
5576;DHT22;2810;50.134;8.626;2023-02-01T09:35:55;6.70;99.90
5576;DHT22;2810;50.134;8.626;2023-02-01T09:38:21;6.70;99.90
5576;DHT22;2810;50.134;8.626;2023-02-01T09:40:46;6.70;99.90
5576;DHT22;2810;50.134;8.626;2023-02-01T09:48:16;6.90;99.90
5576;DHT22;2810;50.134;8.626;2023-02-01T09:50:54;6.90;99.90
5576;DHT22;2810;50.134;8.626;2023-02-01T09:53:25;6.90;99.90
5576;DHT22;2810;50.134;8.626;2023-02-01T09:56:00;6.90;99.90
5576;DHT22;2810;50.134;8.626;2023-02-01T09:58:35;6.90;99.90
5576;DHT22;2810;50.134;8.626;2023-02-01T10:01:02;6.90;99.90
5576;DHT22;2810;50.134;8.626;2023-02-01T10:03:29;6.90;99.90
5576;DHT22;2810;50.134;8.626;2023-02-01T10:06:02;7.00;99.90
5576;DHT22;2810;50.134;8.626;2023-02-01T10:11:26;7.00;99.90
5576;DHT22;2810;50.134;8.626;2023-02-01T10:14:01;7.00;99.90
5576;DHT22;2810;50.134;8.626;2023-02-01T10:16:34;7.00;99.90
5576;DHT22;2810;50.134;8.626;2023-02-01T10:21:54;7.00;99.90
5576;DHT22;2810;50.134;8.626;2023-02-01T10:24:24;7.10;99.90
5576;DHT22;2810;50.134;8.626;2023-02-01T10:27:07;7.20;99.90
5576;DHT22;2810;50.134;8.626;2023-02-01T10:29:36;7.20;99.90
5576;DHT22;2810;50.134;8.626;2023-02-01T10:32:02;7.30;99.90
5576;DHT22;2810;50.134;8.626;2023-02-01T10:34:30;7.30;99.90
5576;DHT22;2810;50.134;8.626;2023-02-01T10:36:58;7.40;99.90
5576;DHT22;2810;50.134;8.626;2023-02-01T10:39:25;7.40;99.90
5576;DHT22;2810;50.134;8.626;2023-02-01T10:41:50;7.50;99.90
5576;DHT22;2810;50.134;8.626;2023-02-01T10:44:26;7.40;99.90
5576;DHT22;2810;50.134;8.626;2023-02-01T10:46:53;7.50;99.90
5576;DHT22;2810;50.134;8.626;2023-02-01T10:52:11;7.40;99.90
5576;DHT22;2810;50.134;8.626;2023-02-01T10:54:38;7.50;99.90
5576;DHT22;2810;50.134;8.626;2023-02-01T10:57:07;7.40;99.90
5576;DHT22;2810;50.134;8.626;2023-02-01T10:59:33;7.40;99.90
5576;DHT22;2810;50.134;8.626;2023-02-01T11:02:22;7.60;99.90
5576;DHT22;2810;50.134;8.626;2023-02-01T11:04:57;7.50;99.90
5576;DHT22;2810;50.134;8.626;2023-02-01T11:07:23;7.70;99.90
5576;DHT22;2810;50.134;8.626;2023-02-01T11:09:50;7.50;99.90
5576;DHT22;2810;50.134;8.626;2023-02-01T11:12:22;7.80;99.90
5576;DHT22;2810;50.134;8.626;2023-02-01T11:14:48;7.40;99.90
5576;DHT22;2810;50.134;8.626;2023-02-01T11:19:43;7.40;99.90
5576;DHT22;2810;50.134;8.626;2023-02-01T11:22:09;7.40;99.90
5576;DHT22;2810;50.134;8.626;2023-02-01T11:24:35;7.40;99.90
5576;DHT22;2810;50.134;8.626;2023-02-01T11:27:03;7.40;99.90
5576;DHT22;2810;50.134;8.626;2023-02-01T11:29:33;7.80;99.90
5576;DHT22;2810;50.134;8.626;2023-02-01T11:32:00;7.40;99.90
5576;DHT22;2810;50.134;8.626;2023-02-01T11:34:29;7.40;99.90
5576;DHT22;2810;50.134;8.626;2023-02-01T11:36:59;7.50;99.90
5576;DHT22;2810;50.134;8.626;2023-02-01T11:39:29;7.50;99.90
5576;DHT22;2810;50.134;8.626;2023-02-01T11:42:04;7.50;99.90
5576;DHT22;2810;50.134;8.626;2023-02-01T11:45:13;7.50;99.90
5576;DHT22;2810;50.134;8.626;2023-02-01T11:47:23;7.60;99.90
5576;DHT22;2810;50.134;8.626;2023-02-01T11:49:49;7.60;99.90
5576;DHT22;2810;50.134;8.626;2023-02-01T11:55:03;7.60;99.90
5576;DHT22;2810;50.134;8.626;2023-02-01T11:57:51;7.70;99.90
5576;DHT22;2810;50.134;8.626;2023-02-01T12:00:26;7.80;99.90
5576;DHT22;2810;50.134;8.626;2023-02-01T12:07:49;7.80;99.90
5576;DHT22;2810;50.134;8.626;2023-02-01T12:15:21;7.90;99.90
5576;DHT22;2810;50.134;8.626;2023-02-01T12:25:18;7.90;99.90
5576;DHT22;2810;50.134;8.626;2023-02-01T12:27:52;8.00;99.90
5576;DHT22;2810;50.134;8.626;2023-02-01T12:33:04;7.90;99.90
5576;DHT22;2810;50.134;8.626;2023-02-01T12:38:20;7.90;99.90
5576;DHT22;2810;50.134;8.626;2023-02-01T12:40:52;7.90;99.90
5576;DHT22;2810;50.134;8.626;2023-02-01T12:43:25;7.90;99.90
5576;DHT22;2810;50.134;8.626;2023-02-01T12:46:06;7.90;99.90
5576;DHT22;2810;50.134;8.626;2023-02-01T12:48:37;7.90;99.90
5576;DHT22;2810;50.134;8.626;2023-02-01T12:51:16;7.90;99.90
5576;DHT22;2810;50.134;8.626;2023-02-01T12:53:48;7.50;99.90
5576;DHT22;2810;50.134;8.626;2023-02-01T12:56:16;7.90;99.90
5576;DHT22;2810;50.134;8.626;2023-02-01T12:58:45;7.90;99.90
5576;DHT22;2810;50.134;8.626;2023-02-01T13:01:13;7.80;99.90
5576;DHT22;2810;50.134;8.626;2023-02-01T13:03:56;7.80;99.90
5576;DHT22;2810;50.134;8.626;2023-02-01T13:06:42;7.80;99.90
5576;DHT22;2810;50.134;8.626;2023-02-01T13:11:35;7.70;99.90
5576;DHT22;2810;50.134;8.626;2023-02-01T13:14:48;7.80;99.90
5576;DHT22;2810;50.134;8.626;2023-02-01T13:16:48;7.80;99.90
5576;DHT22;2810;50.134;8.626;2023-02-01T13:19:16;7.80;99.90
5576;DHT22;2810;50.134;8.626;2023-02-01T13:21:45;8.20;99.90
5576;DHT22;2810;50.134;8.626;2023-02-01T13:24:21;7.80;99.90
5576;DHT22;2810;50.134;8.626;2023-02-01T13:26:52;7.80;99.90
5576;DHT22;2810;50.134;8.626;2023-02-01T13:29:18;7.80;99.90
5576;DHT22;2810;50.134;8.626;2023-02-01T13:31:51;7.90;99.90
5576;DHT22;2810;50.134;8.626;2023-02-01T13:34:38;7.90;99.90
5576;DHT22;2810;50.134;8.626;2023-02-01T13:42:34;8.00;99.90
5576;DHT22;2810;50.134;8.626;2023-02-01T13:45:02;8.00;99.90
5576;DHT22;2810;50.134;8.626;2023-02-01T13:47:30;8.10;99.90
5576;DHT22;2810;50.134;8.626;2023-02-01T13:50:01;8.10;99.90
5576;DHT22;2810;50.134;8.626;2023-02-01T13:52:29;8.60;99.90
5576;DHT22;2810;50.134;8.626;2023-02-01T13:57:59;8.20;99.90
5576;DHT22;2810;50.134;8.626;2023-02-01T14:00:26;8.20;99.90
5576;DHT22;2810;50.134;8.626;2023-02-01T14:21:18;8.60;99.90
5576;DHT22;2810;50.134;8.626;2023-02-01T14:23:45;8.70;99.90
5576;DHT22;2810;50.134;8.626;2023-02-01T14:26:14;8.70;99.90
5576;DHT22;2810;50.134;8.626;2023-02-01T14:28:41;8.90;99.90
5576;DHT22;2810;50.134;8.626;2023-02-01T14:31:15;9.00;99.90
5576;DHT22;2810;50.134;8.626;2023-02-01T14:33:41;9.20;99.90
5576;DHT22;2810;50.134;8.626;2023-02-01T14:36:09;9.20;99.90
5576;DHT22;2810;50.134;8.626;2023-02-01T14:38:36;9.60;99.90
5576;DHT22;2810;50.134;8.626;2023-02-01T14:43:50;9.90;99.90
5576;DHT22;2810;50.134;8.626;2023-02-01T14:46:16;9.70;99.90
5576;DHT22;2810;50.134;8.626;2023-02-01T14:48:42;9.50;99.90
5576;DHT22;2810;50.134;8.626;2023-02-01T14:51:09;9.30;99.90
5576;DHT22;2810;50.134;8.626;2023-02-01T14:53:36;9.30;99.90
5576;DHT22;2810;50.134;8.626;2023-02-01T15:06:32;9.20;99.90
5576;DHT22;2810;50.134;8.626;2023-02-01T15:09:11;9.20;99.90
5576;DHT22;2810;50.134;8.626;2023-02-01T15:11:56;9.10;99.90
5576;DHT22;2810;50.134;8.626;2023-02-01T15:14:21;9.00;99.90
5576;DHT22;2810;50.134;8.626;2023-02-01T15:16:47;9.00;99.90
5576;DHT22;2810;50.134;8.626;2023-02-01T15:19:19;8.90;99.90
5576;DHT22;2810;50.134;8.626;2023-02-01T15:21:47;8.90;99.90
5576;DHT22;2810;50.134;8.626;2023-02-01T15:24:14;8.80;99.90
5576;DHT22;2810;50.134;8.626;2023-02-01T15:26:39;8.90;99.90
5576;DHT22;2810;50.134;8.626;2023-02-01T15:29:05;8.70;99.90
5576;DHT22;2810;50.134;8.626;2023-02-01T15:31:36;8.60;99.90
5576;DHT22;2810;50.134;8.626;2023-02-01T15:34:02;8.50;99.90
5576;DHT22;2810;50.134;8.626;2023-02-01T15:36:28;8.50;99.90
5576;DHT22;2810;50.134;8.626;2023-02-01T15:41:49;8.50;99.90
5576;DHT22;2810;50.134;8.626;2023-02-01T15:44:19;8.40;99.90
5576;DHT22;2810;50.134;8.626;2023-02-01T15:46:45;8.40;99.90
5576;DHT22;2810;50.134;8.626;2023-02-01T15:51:46;8.40;99.90
5576;DHT22;2810;50.134;8.626;2023-02-01T15:54:14;8.40;99.90
5576;DHT22;2810;50.134;8.626;2023-02-01T15:56:44;8.40;99.90
5576;DHT22;2810;50.134;8.626;2023-02-01T15:59:17;8.30;99.90
5576;DHT22;2810;50.134;8.626;2023-02-01T16:01:43;8.20;99.90
5576;DHT22;2810;50.134;8.626;2023-02-01T16:04:27;8.20;99.90
5576;DHT22;2810;50.134;8.626;2023-02-01T16:06:57;8.10;99.90
5576;DHT22;2810;50.134;8.626;2023-02-01T16:09:24;8.30;99.90
5576;DHT22;2810;50.134;8.626;2023-02-01T16:11:56;8.00;99.90
5576;DHT22;2810;50.134;8.626;2023-02-01T16:14:22;8.00;99.90
5576;DHT22;2810;50.134;8.626;2023-02-01T16:16:48;8.00;99.90
5576;DHT22;2810;50.134;8.626;2023-02-01T16:19:14;8.00;99.90
5576;DHT22;2810;50.134;8.626;2023-02-01T16:21:40;7.90;99.90
5576;DHT22;2810;50.134;8.626;2023-02-01T16:24:05;7.90;99.90
5576;DHT22;2810;50.134;8.626;2023-02-01T16:26:31;7.90;99.90
5576;DHT22;2810;50.134;8.626;2023-02-01T16:28:57;7.90;99.90
5576;DHT22;2810;50.134;8.626;2023-02-01T16:31:24;7.80;99.90
5576;DHT22;2810;50.134;8.626;2023-02-01T16:33:50;7.90;99.90
5576;DHT22;2810;50.134;8.626;2023-02-01T16:36:16;7.90;99.90
5576;DHT22;2810;50.134;8.626;2023-02-01T16:38:42;7.80;99.90
5576;DHT22;2810;50.134;8.626;2023-02-01T16:41:10;7.80;99.90
5576;DHT22;2810;50.134;8.626;2023-02-01T16:43:37;7.80;99.90
5576;DHT22;2810;50.134;8.626;2023-02-01T16:46:03;7.70;99.90
5576;DHT22;2810;50.134;8.626;2023-02-01T16:48:30;7.70;99.90
5576;DHT22;2810;50.134;8.626;2023-02-01T16:50:56;7.70;99.90
5576;DHT22;2810;50.134;8.626;2023-02-01T16:53:23;7.90;99.90
5576;DHT22;2810;50.134;8.626;2023-02-01T16:55:49;7.70;99.90
5576;DHT22;2810;50.134;8.626;2023-02-01T16:58:18;7.60;99.90
5576;DHT22;2810;50.134;8.626;2023-02-01T17:00:43;7.60;99.90
5576;DHT22;2810;50.134;8.626;2023-02-01T17:03:10;7.60;99.90
5576;DHT22;2810;50.134;8.626;2023-02-01T17:05:36;7.60;99.90
5576;DHT22;2810;50.134;8.626;2023-02-01T17:08:02;7.60;99.90
5576;DHT22;2810;50.134;8.626;2023-02-01T17:10:29;7.60;99.90
5576;DHT22;2810;50.134;8.626;2023-02-01T17:12:55;7.60;99.90
5576;DHT22;2810;50.134;8.626;2023-02-01T17:15:23;7.50;99.90
5576;DHT22;2810;50.134;8.626;2023-02-01T17:17:49;7.50;99.90
5576;DHT22;2810;50.134;8.626;2023-02-01T17:20:20;7.50;99.90
5576;DHT22;2810;50.134;8.626;2023-02-01T17:22:46;7.40;99.90
5576;DHT22;2810;50.134;8.626;2023-02-01T17:25:19;7.70;99.90
5576;DHT22;2810;50.134;8.626;2023-02-01T17:27:45;7.40;99.90
5576;DHT22;2810;50.134;8.626;2023-02-01T17:30:11;7.40;99.90
5576;DHT22;2810;50.134;8.626;2023-02-01T17:32:37;7.40;99.90
5576;DHT22;2810;50.134;8.626;2023-02-01T17:35:04;7.40;99.90
5576;DHT22;2810;50.134;8.626;2023-02-01T17:37:31;7.40;99.90
5576;DHT22;2810;50.134;8.626;2023-02-01T17:39:57;7.30;99.90
5576;DHT22;2810;50.134;8.626;2023-02-01T17:42:23;7.30;99.90
5576;DHT22;2810;50.134;8.626;2023-02-01T17:44:54;7.30;99.90
5576;DHT22;2810;50.134;8.626;2023-02-01T17:47:20;7.30;99.90
5576;DHT22;2810;50.134;8.626;2023-02-01T17:49:45;7.20;99.90
5576;DHT22;2810;50.134;8.626;2023-02-01T17:52:15;7.20;99.90
5576;DHT22;2810;50.134;8.626;2023-02-01T17:54:40;7.20;99.90
5576;DHT22;2810;50.134;8.626;2023-02-01T17:57:12;7.20;99.90
5576;DHT22;2810;50.134;8.626;2023-02-01T17:59:38;7.20;99.90
5576;DHT22;2810;50.134;8.626;2023-02-01T18:02:08;7.20;99.90
5576;DHT22;2810;50.134;8.626;2023-02-01T18:04:38;7.20;99.90
5576;DHT22;2810;50.134;8.626;2023-02-01T18:07:03;7.20;99.90